Salt Lake City, Utah
Traffic Map
Current Weather Conditions
Salt Lake City, Utah
Clear
Clear
14°
Feels Like: 14°
Wind Chill: 14° Ceiling: Unl
Heat Index: 14° Visibility: 10mi
Dew Point: Wind: 8mph
Humidity: 53% Direction: 140° (SE)
Pressure: 30in Gusts: 0mph
Raw Report DataKSLC 011053Z 14007KT 10SM CLR 14/04 A3000 RMK AO2 SLP117 T01390044
Traffic Incident Summary
Active as of:
Severity:
Category:
InformationThere was an issue retrieving the traffic information for this location. Please try a different location or try again shortly.
Advertisements
Track Severe Weather on mobile